Time;durP1;ratioP1;P1;durP2;ratioP2;P2;SDS_P1;SDS_P2;PMS_P1;PMS_P2;Temp;Humidity;BMP_temperature;BMP_pressure;BME280_temperature;BME280_humidity;BME280_pressure;Samples;Min_cycle;Max_cycle;Signal;HPM_P1;HPM_P2
2023/12/08 00:01:53;;;;;;;26.57;15.83;;;;;;;;;;4872847;29;20432;-65
2023/12/08 00:04:19;;;;;;;27.97;15.40;;;;;;;;;;4873732;29;20128;-65
2023/12/08 00:06:45;;;;;;;23.50;13.23;;;;;;;;;;4874935;29;20423;-66
2023/12/08 00:09:11;;;;;;;23.40;13.03;;;;;;;;;;4874392;29;20139;-66
2023/12/08 00:11:37;;;;;;;27.50;14.07;;;;;;;;;;4875145;29;20076;-65
2023/12/08 00:14:03;;;;;;;24.77;14.37;;;;;;;;;;4873814;29;20055;-65
2023/12/08 00:16:30;;;;;;;24.27;13.60;;;;;;;;;;4875344;29;20041;-66
2023/12/08 00:18:56;;;;;;;23.33;14.20;;;;;;;;;;4875018;29;20041;-65
2023/12/08 00:21:23;;;;;;;25.37;14.10;;;;;;;;;;4874926;29;20051;-65
2023/12/08 00:23:49;;;;;;;24.03;12.90;;;;;;;;;;4875400;29;20125;-65
2023/12/08 00:26:15;;;;;;;28.27;15.23;;;;;;;;;;4875127;29;20816;-66
2023/12/08 00:28:41;;;;;;;28.43;14.33;;;;;;;;;;4874820;29;20049;-66
2023/12/08 00:31:07;;;;;;;22.57;13.37;;;;;;;;;;4875459;29;20332;-65
2023/12/08 00:33:33;;;;;;;25.73;13.70;;;;;;;;;;4875669;29;20496;-65
2023/12/08 00:35:59;;;;;;;24.50;14.13;;;;;;;;;;4874362;29;20041;-66
2023/12/08 00:38:25;;;;;;;24.73;13.93;;;;;;;;;;4875646;29;20100;-65
2023/12/08 00:40:52;;;;;;;24.50;14.47;;;;;;;;;;4874310;29;20097;-66
2023/12/08 00:43:18;;;;;;;23.63;13.47;;;;;;;;;;4873429;29;20480;-66
2023/12/08 00:45:44;;;;;;;23.50;13.40;;;;;;;;;;4868909;29;20306;-65
2023/12/08 00:48:10;;;;;;;25.10;14.23;;;;;;;;;;4863775;29;20085;-65
2023/12/08 00:50:36;;;;;;;21.47;12.60;;;;;;;;;;4874591;29;20081;-65
2023/12/08 00:53:02;;;;;;;22.20;14.07;;;;;;;;;;4874746;29;20415;-65
2023/12/08 00:55:28;;;;;;;23.43;14.10;;;;;;;;;;4873755;29;20080;-65
2023/12/08 00:57:54;;;;;;;25.73;14.03;;;;;;;;;;4874103;29;20076;-65
2023/12/08 01:00:20;;;;;;;24.00;13.97;;;;;;;;;;4874066;29;20053;-65
2023/12/08 01:02:46;;;;;;;22.97;13.70;;;;;;;;;;4874729;29;20056;-65
2023/12/08 01:05:12;;;;;;;25.27;14.67;;;;;;;;;;4874938;29;20293;-66
2023/12/08 01:07:38;;;;;;;25.70;13.93;;;;;;;;;;4873888;29;20088;-65
2023/12/08 01:10:07;;;;;;;23.60;14.13;;;;;;;;;;4873053;29;20415;-65
2023/12/08 01:12:33;;;;;;;28.23;14.37;;;;;;;;;;4875278;29;20356;-65
2023/12/08 01:14:59;;;;;;;26.07;13.87;;;;;;;;;;4871578;29;20045;-65
2023/12/08 01:17:25;;;;;;;28.57;16.27;;;;;;;;;;4874200;29;20859;-65
2023/12/08 01:19:51;;;;;;;29.43;16.27;;;;;;;;;;4873417;29;20048;-65
2023/12/08 01:22:17;;;;;;;28.07;15.10;;;;;;;;;;4873168;29;20060;-65
2023/12/08 01:24:43;;;;;;;25.00;14.57;;;;;;;;;;4873463;29;20132;-65
2023/12/08 01:27:09;;;;;;;26.97;15.10;;;;;;;;;;4873164;29;20052;-65
2023/12/08 01:29:35;;;;;;;29.33;16.07;;;;;;;;;;4874068;29;20076;-65
2023/12/08 01:32:01;;;;;;;23.97;14.17;;;;;;;;;;4873675;29;20109;-66
2023/12/08 01:34:27;;;;;;;25.33;15.27;;;;;;;;;;4874367;29;20048;-65
2023/12/08 01:36:53;;;;;;;27.87;15.33;;;;;;;;;;4874228;29;20526;-65
2023/12/08 01:39:19;;;;;;;27.73;13.87;;;;;;;;;;4878287;29;20041;-66
2023/12/08 01:41:49;;;;;;;27.50;15.73;;;;;;;;;;4877616;29;20049;-65
2023/12/08 01:44:15;;;;;;;28.63;16.17;;;;;;;;;;4877206;29;20535;-65
2023/12/08 01:46:41;;;;;;;31.30;15.90;;;;;;;;;;4878734;29;20057;-66
2023/12/08 01:49:07;;;;;;;24.73;16.00;;;;;;;;;;4877445;29;20053;-65
2023/12/08 01:51:33;;;;;;;26.67;16.10;;;;;;;;;;4878811;29;20457;-65
2023/12/08 01:54:00;;;;;;;27.27;15.00;;;;;;;;;;4877105;29;20813;-65
2023/12/08 01:56:26;;;;;;;28.73;17.03;;;;;;;;;;4875688;29;20365;-65
2023/12/08 01:58:53;;;;;;;27.03;15.07;;;;;;;;;;4877863;29;20083;-65
2023/12/08 02:01:20;;;;;;;30.37;15.33;;;;;;;;;;4877804;29;20048;-65
2023/12/08 02:03:50;;;;;;;27.50;16.23;;;;;;;;;;4877492;29;20100;-65
2023/12/08 02:06:16;;;;;;;24.03;14.87;;;;;;;;;;4878076;29;20053;-65
2023/12/08 02:08:42;;;;;;;29.87;15.93;;;;;;;;;;4870293;29;20677;-65
2023/12/08 02:11:08;;;;;;;33.47;16.63;;;;;;;;;;4859736;29;20053;-65
2023/12/08 02:13:34;;;;;;;31.10;15.93;;;;;;;;;;4876402;29;20504;-66
2023/12/08 02:16:04;;;;;;;27.30;16.23;;;;;;;;;;4877986;29;20049;-65
2023/12/08 02:18:32;;;;;;;30.30;15.83;;;;;;;;;;4876979;29;20084;-65
2023/12/08 02:20:58;;;;;;;27.03;15.57;;;;;;;;;;4878059;29;20056;-65
2023/12/08 02:23:24;;;;;;;30.77;16.83;;;;;;;;;;4876782;29;20322;-65
2023/12/08 02:25:50;;;;;;;29.97;16.57;;;;;;;;;;4876838;29;20068;-65
2023/12/08 02:28:16;;;;;;;26.87;16.93;;;;;;;;;;4877721;29;20471;-65
2023/12/08 02:30:42;;;;;;;32.87;17.17;;;;;;;;;;4875590;29;20096;-65
2023/12/08 02:33:09;;;;;;;32.53;17.90;;;;;;;;;;4872690;29;20045;-63
2023/12/08 02:35:39;;;;;;;28.93;17.67;;;;;;;;;;4876214;29;20065;-63
2023/12/08 02:38:07;;;;;;;34.30;19.10;;;;;;;;;;4876002;29;20041;-62
2023/12/08 02:40:34;;;;;;;31.07;18.23;;;;;;;;;;4876144;29;20072;-63
2023/12/08 02:43:00;;;;;;;28.17;16.63;;;;;;;;;;4876126;29;20045;-63
2023/12/08 02:45:26;;;;;;;32.50;16.87;;;;;;;;;;4876240;29;20670;-65
2023/12/08 02:47:52;;;;;;;30.33;17.07;;;;;;;;;;4877536;29;20077;-65
2023/12/08 02:50:18;;;;;;;32.37;16.60;;;;;;;;;;4875726;29;20385;-65
2023/12/08 02:52:44;;;;;;;29.73;16.80;;;;;;;;;;4876210;29;20048;-65
2023/12/08 02:55:10;;;;;;;29.53;16.93;;;;;;;;;;4876694;29;20156;-63
2023/12/08 02:57:36;;;;;;;31.57;18.37;;;;;;;;;;4876257;29;20045;-63
2023/12/08 03:00:02;;;;;;;33.53;18.07;;;;;;;;;;4876713;29;20052;-66
2023/12/08 03:02:28;;;;;;;30.00;18.13;;;;;;;;;;4877207;29;20041;-66
2023/12/08 03:04:54;;;;;;;34.77;18.50;;;;;;;;;;4876351;29;20049;-66
2023/12/08 03:07:20;;;;;;;33.10;18.53;;;;;;;;;;4876768;29;20053;-66
2023/12/08 03:09:47;;;;;;;42.77;21.33;;;;;;;;;;4877203;29;20049;-66
2023/12/08 03:12:13;;;;;;;41.60;21.33;;;;;;;;;;4873962;29;20516;-66
2023/12/08 03:14:39;;;;;;;52.97;22.87;;;;;;;;;;4876011;29;20416;-66
2023/12/08 03:17:05;;;;;;;49.93;20.73;;;;;;;;;;4875946;29;20055;-66
2023/12/08 03:19:31;;;;;;;57.07;24.13;;;;;;;;;;4877210;29;20293;-66
2023/12/08 03:21:56;;;;;;;60.63;24.30;;;;;;;;;;4874415;29;20093;-66
2023/12/08 03:24:22;;;;;;;78.43;24.73;;;;;;;;;;4876424;29;20153;-66
2023/12/08 03:26:48;;;;;;;67.50;24.60;;;;;;;;;;4875359;29;20333;-67
2023/12/08 03:29:17;;;;;;;68.37;25.10;;;;;;;;;;4875688;29;20699;-67
2023/12/08 03:31:43;;;;;;;66.43;24.80;;;;;;;;;;4875722;29;20049;-67
2023/12/08 03:34:10;;;;;;;70.97;26.47;;;;;;;;;;4876707;29;20282;-67
2023/12/08 03:36:36;;;;;;;59.37;23.97;;;;;;;;;;4875759;29;20831;-67
2023/12/08 03:39:02;;;;;;;64.33;26.20;;;;;;;;;;4876491;29;20285;-67
2023/12/08 03:41:28;;;;;;;64.87;24.57;;;;;;;;;;4875019;29;20340;-68
2023/12/08 03:43:54;;;;;;;64.70;26.00;;;;;;;;;;4875500;29;20057;-68
2023/12/08 03:46:20;;;;;;;66.10;24.27;;;;;;;;;;4875414;29;20060;-69
2023/12/08 03:48:46;;;;;;;60.07;25.07;;;;;;;;;;4875119;29;20531;-68
2023/12/08 03:51:12;;;;;;;74.07;25.63;;;;;;;;;;4874591;29;20673;-68
2023/12/08 03:53:38;;;;;;;56.07;25.90;;;;;;;;;;4873952;29;20302;-69
2023/12/08 03:56:05;;;;;;;59.23;24.73;;;;;;;;;;4873366;29;20049;-68
2023/12/08 03:58:31;;;;;;;65.97;27.00;;;;;;;;;;4874310;29;20724;-69
2023/12/08 04:00:57;;;;;;;65.70;26.23;;;;;;;;;;4873185;29;20304;-68
2023/12/08 04:03:23;;;;;;;69.10;27.60;;;;;;;;;;4874337;29;20109;-68
2023/12/08 04:05:50;;;;;;;76.00;27.97;;;;;;;;;;4875106;29;20056;-68
2023/12/08 04:08:16;;;;;;;64.80;25.17;;;;;;;;;;4875273;29;20301;-68
2023/12/08 04:10:42;;;;;;;73.77;27.20;;;;;;;;;;4876251;29;20294;-68
2023/12/08 04:13:08;;;;;;;78.40;27.67;;;;;;;;;;4872862;29;20301;-68
2023/12/08 04:15:34;;;;;;;71.70;27.47;;;;;;;;;;4876235;29;20839;-68
2023/12/08 04:18:00;;;;;;;110.80;41.13;;;;;;;;;;4875880;29;20292;-68
2023/12/08 04:20:26;;;;;;;76.87;30.03;;;;;;;;;;4874479;29;20672;-69
2023/12/08 04:22:52;;;;;;;117.73;44.97;;;;;;;;;;4875287;29;20068;-68
2023/12/08 04:25:18;;;;;;;94.63;38.50;;;;;;;;;;4874754;29;20305;-68
2023/12/08 04:27:44;;;;;;;70.07;27.73;;;;;;;;;;4874166;29;20060;-69
2023/12/08 04:30:10;;;;;;;89.87;32.07;;;;;;;;;;4874871;29;20067;-69
2023/12/08 04:32:36;;;;;;;72.27;26.37;;;;;;;;;;4874271;29;20487;-69
2023/12/08 04:35:02;;;;;;;104.67;40.27;;;;;;;;;;4875014;29;20321;-69
2023/12/08 04:37:28;;;;;;;101.00;37.13;;;;;;;;;;4875406;29;20041;-69
2023/12/08 04:39:54;;;;;;;68.20;27.73;;;;;;;;;;4874444;29;20052;-69
2023/12/08 04:42:20;;;;;;;100.27;37.30;;;;;;;;;;4875056;29;20859;-68
2023/12/08 04:44:46;;;;;;;89.87;33.20;;;;;;;;;;4874099;29;20044;-68
2023/12/08 04:47:12;;;;;;;235.80;95.10;;;;;;;;;;4874644;29;20101;-68
2023/12/08 04:49:38;;;;;;;248.43;98.03;;;;;;;;;;4873553;29;20045;-68
2023/12/08 04:52:04;;;;;;;109.73;41.23;;;;;;;;;;4874671;29;20301;-69
2023/12/08 04:54:30;;;;;;;75.10;30.03;;;;;;;;;;4874253;29;20516;-68
2023/12/08 04:56:56;;;;;;;106.53;42.33;;;;;;;;;;4873830;29;20297;-68
2023/12/08 04:59:22;;;;;;;82.50;29.40;;;;;;;;;;4875087;29;20052;-68
2023/12/08 05:01:51;;;;;;;84.73;34.13;;;;;;;;;;4877617;29;20044;-68
2023/12/08 05:04:17;;;;;;;87.03;31.80;;;;;;;;;;4878378;29;20500;-68
2023/12/08 05:06:44;;;;;;;86.07;32.43;;;;;;;;;;4873342;29;20317;-68
2023/12/08 05:09:13;;;;;;;94.23;32.00;;;;;;;;;;4872426;29;20333;-68
2023/12/08 05:11:39;;;;;;;92.40;32.23;;;;;;;;;;4871612;29;20313;-68
2023/12/08 05:14:05;;;;;;;145.50;68.93;;;;;;;;;;4870789;29;20306;-68
2023/12/08 05:16:31;;;;;;;73.43;30.57;;;;;;;;;;4873555;29;20349;-68
2023/12/08 05:18:57;;;;;;;66.30;28.63;;;;;;;;;;4873615;29;20387;-68
2023/12/08 05:21:24;;;;;;;81.87;33.10;;;;;;;;;;4874991;29;20333;-68
2023/12/08 05:23:50;;;;;;;88.57;31.93;;;;;;;;;;4874064;29;20314;-69
2023/12/08 05:26:16;;;;;;;78.80;28.63;;;;;;;;;;4874006;29;20800;-68
2023/12/08 05:28:42;;;;;;;78.90;30.10;;;;;;;;;;4873776;29;20148;-68
2023/12/08 05:31:08;;;;;;;77.60;29.77;;;;;;;;;;4871041;29;20052;-68
2023/12/08 05:33:34;;;;;;;75.97;29.73;;;;;;;;;;4873201;29;20080;-68
2023/12/08 05:36:00;;;;;;;74.70;29.70;;;;;;;;;;4873911;29;20061;-68
2023/12/08 05:38:26;;;;;;;102.63;31.87;;;;;;;;;;4874631;29;20338;-68
2023/12/08 05:40:52;;;;;;;82.33;31.23;;;;;;;;;;4870754;29;20297;-68
2023/12/08 05:43:18;;;;;;;89.63;33.10;;;;;;;;;;4874685;29;20060;-68
2023/12/08 05:45:44;;;;;;;85.10;30.77;;;;;;;;;;4873995;29;20075;-68
2023/12/08 05:48:11;;;;;;;86.53;31.57;;;;;;;;;;4873381;29;20041;-68
2023/12/08 05:50:37;;;;;;;73.83;28.17;;;;;;;;;;4872467;29;20049;-68
2023/12/08 05:53:03;;;;;;;80.90;29.93;;;;;;;;;;4873622;29;20060;-68
2023/12/08 05:55:29;;;;;;;90.60;31.10;;;;;;;;;;4875158;29;20530;-69
2023/12/08 05:57:55;;;;;;;84.20;30.93;;;;;;;;;;4873182;29;20057;-69
2023/12/08 06:00:21;;;;;;;94.47;33.73;;;;;;;;;;4874574;29;20508;-69
2023/12/08 06:02:47;;;;;;;87.63;32.83;;;;;;;;;;4871747;29;20369;-68
2023/12/08 06:05:13;;;;;;;91.80;32.93;;;;;;;;;;4865181;29;20064;-69
2023/12/08 06:07:42;;;;;;;91.37;34.33;;;;;;;;;;4874227;29;20297;-69
2023/12/08 06:10:08;;;;;;;88.80;33.80;;;;;;;;;;4874655;29;20416;-69
2023/12/08 06:12:35;;;;;;;102.70;34.67;;;;;;;;;;4874922;29;20322;-68
2023/12/08 06:15:01;;;;;;;109.57;35.77;;;;;;;;;;4874438;29;20293;-69
2023/12/08 06:17:27;;;;;;;112.00;36.90;;;;;;;;;;4870439;29;20302;-66
2023/12/08 06:19:54;;;;;;;109.37;36.23;;;;;;;;;;4874162;29;20296;-66
2023/12/08 06:22:20;;;;;;;98.33;35.77;;;;;;;;;;4872863;29;20298;-66
2023/12/08 06:24:46;;;;;;;97.80;33.87;;;;;;;;;;4876255;29;20061;-66
2023/12/08 06:27:12;;;;;;;97.30;34.33;;;;;;;;;;4874664;29;20404;-66
2023/12/08 06:29:38;;;;;;;92.87;34.33;;;;;;;;;;4875362;29;20083;-66
2023/12/08 06:32:04;;;;;;;93.40;34.17;;;;;;;;;;4876883;29;20053;-66
2023/12/08 06:34:30;;;;;;;96.00;34.90;;;;;;;;;;4876980;29;20313;-66
2023/12/08 06:36:56;;;;;;;109.57;35.90;;;;;;;;;;4876109;29;20294;-66
2023/12/08 06:39:22;;;;;;;128.90;39.97;;;;;;;;;;4877414;29;20048;-66
2023/12/08 06:41:48;;;;;;;104.83;36.47;;;;;;;;;;4876606;29;20500;-67
2023/12/08 06:44:14;;;;;;;126.50;37.97;;;;;;;;;;4876894;29;20049;-66
2023/12/08 06:46:40;;;;;;;109.73;35.40;;;;;;;;;;4876549;29;20349;-66
2023/12/08 06:49:06;;;;;;;115.93;36.20;;;;;;;;;;4877577;29;20324;-66
2023/12/08 06:51:35;;;;;;;102.90;35.07;;;;;;;;;;4866612;29;20501;-66
2023/12/08 06:54:02;;;;;;;88.43;33.53;;;;;;;;;;4858789;29;20290;-66
2023/12/08 06:56:28;;;;;;;91.80;34.17;;;;;;;;;;4871237;29;20767;-68
2023/12/08 06:58:54;;;;;;;87.33;33.37;;;;;;;;;;4876107;29;20800;-68
2023/12/08 07:01:21;;;;;;;92.87;34.97;;;;;;;;;;4876496;29;20395;-69
2023/12/08 07:03:47;;;;;;;89.53;32.20;;;;;;;;;;4877046;29;20749;-69
2023/12/08 07:06:13;;;;;;;88.63;32.43;;;;;;;;;;4876615;29;20808;-68
2023/12/08 07:08:39;;;;;;;85.87;31.93;;;;;;;;;;4876891;29;20749;-68
2023/12/08 07:11:05;;;;;;;85.70;32.10;;;;;;;;;;4875821;29;20290;-68
2023/12/08 07:13:31;;;;;;;85.60;33.43;;;;;;;;;;4874355;29;20055;-68
2023/12/08 07:15:57;;;;;;;85.83;31.03;;;;;;;;;;4876777;29;20289;-68
2023/12/08 07:18:23;;;;;;;88.27;31.33;;;;;;;;;;4875913;29;20084;-68
2023/12/08 07:20:50;;;;;;;70.57;30.00;;;;;;;;;;4877057;29;20293;-68
2023/12/08 07:23:16;;;;;;;99.07;32.73;;;;;;;;;;4875344;29;20326;-68
2023/12/08 07:25:42;;;;;;;87.73;32.30;;;;;;;;;;4874750;29;20056;-68
2023/12/08 07:28:08;;;;;;;78.50;30.67;;;;;;;;;;4875559;29;20057;-68
2023/12/08 07:30:34;;;;;;;81.97;31.60;;;;;;;;;;4874134;29;20044;-68
2023/12/08 07:33:00;;;;;;;108.97;34.10;;;;;;;;;;4876541;29;20049;-68
2023/12/08 07:35:26;;;;;;;91.53;33.67;;;;;;;;;;4875156;29;20309;-68
2023/12/08 07:37:52;;;;;;;89.13;32.13;;;;;;;;;;4876326;29;20051;-68
2023/12/08 07:40:18;;;;;;;86.50;31.13;;;;;;;;;;4875711;29;20041;-68
2023/12/08 07:42:44;;;;;;;98.07;32.90;;;;;;;;;;4874573;29;20471;-68
2023/12/08 07:45:11;;;;;;;87.67;32.50;;;;;;;;;;4876072;29;20065;-68
2023/12/08 07:47:38;;;;;;;77.60;30.93;;;;;;;;;;4875288;29;20816;-68
2023/12/08 07:50:05;;;;;;;101.30;34.53;;;;;;;;;;4875463;29;20321;-68
2023/12/08 07:52:31;;;;;;;90.57;32.87;;;;;;;;;;4876227;29;20805;-68
2023/12/08 07:54:57;;;;;;;88.70;30.43;;;;;;;;;;4873700;29;20338;-68
2023/12/08 07:57:23;;;;;;;84.73;31.83;;;;;;;;;;4874808;29;20476;-68
2023/12/08 07:59:49;;;;;;;83.53;31.97;;;;;;;;;;4875660;29;20530;-68
2023/12/08 08:02:15;;;;;;;78.97;32.93;;;;;;;;;;4872398;29;20052;-68
2023/12/08 08:04:41;;;;;;;96.03;33.13;;;;;;;;;;4875242;29;20053;-68
2023/12/08 08:07:07;;;;;;;74.90;29.50;;;;;;;;;;4874473;29;20434;-68
2023/12/08 08:09:33;;;;;;;73.53;30.00;;;;;;;;;;4874555;29;20041;-68
2023/12/08 08:11:59;;;;;;;82.33;31.77;;;;;;;;;;4875669;29;20381;-68
2023/12/08 08:14:26;;;;;;;83.93;32.17;;;;;;;;;;4874737;29;20123;-68
2023/12/08 08:16:52;;;;;;;88.63;31.60;;;;;;;;;;4874811;29;20188;-68
2023/12/08 08:19:18;;;;;;;83.20;32.37;;;;;;;;;;4875842;29;21182;-68
2023/12/08 08:21:44;;;;;;;81.33;30.13;;;;;;;;;;4875794;29;20061;-68
2023/12/08 08:24:10;;;;;;;70.10;29.20;;;;;;;;;;4873998;29;20317;-68
2023/12/08 08:26:36;;;;;;;78.80;28.67;;;;;;;;;;4873712;29;20388;-68
2023/12/08 08:29:02;;;;;;;79.80;30.17;;;;;;;;;;4874030;29;20816;-68
2023/12/08 08:31:28;;;;;;;72.20;30.40;;;;;;;;;;4874482;29;20397;-68
2023/12/08 08:33:55;;;;;;;87.43;32.70;;;;;;;;;;4875043;29;20285;-68
2023/12/08 08:36:21;;;;;;;120.37;36.67;;;;;;;;;;4875021;29;20056;-68
2023/12/08 08:38:47;;;;;;;81.07;31.50;;;;;;;;;;4874140;29;20312;-69
2023/12/08 08:41:13;;;;;;;93.63;32.23;;;;;;;;;;4874437;29;20377;-69
2023/12/08 08:43:39;;;;;;;83.47;30.83;;;;;;;;;;4873885;29;20059;-68
2023/12/08 08:46:05;;;;;;;87.93;31.50;;;;;;;;;;4875480;29;20415;-69
2023/12/08 08:48:31;;;;;;;83.43;29.83;;;;;;;;;;4872114;29;20313;-68
2023/12/08 08:50:57;;;;;;;89.60;33.20;;;;;;;;;;4874470;29;20045;-68
2023/12/08 08:53:24;;;;;;;102.20;35.17;;;;;;;;;;4874298;29;20045;-68
2023/12/08 08:55:50;;;;;;;100.00;35.10;;;;;;;;;;4874802;29;20053;-68
2023/12/08 08:58:16;;;;;;;96.40;32.43;;;;;;;;;;4874561;29;20053;-68
2023/12/08 09:00:42;;;;;;;82.93;32.93;;;;;;;;;;4873987;29;20289;-68
2023/12/08 09:03:08;;;;;;;105.60;35.63;;;;;;;;;;4874577;29;20297;-68
2023/12/08 09:05:40;;;;;;;92.10;32.00;;;;;;;;;;4874475;29;20095;-68
2023/12/08 09:08:06;;;;;;;100.30;34.10;;;;;;;;;;4873111;29;20049;-68
2023/12/08 09:10:32;;;;;;;100.17;34.50;;;;;;;;;;4873247;29;20049;-68
2023/12/08 09:12:58;;;;;;;96.10;34.47;;;;;;;;;;4855557;29;20058;-68
2023/12/08 09:15:24;;;;;;;89.33;34.00;;;;;;;;;;4855709;29;20045;-68
2023/12/08 09:17:50;;;;;;;86.47;32.37;;;;;;;;;;4856262;29;20386;-68
2023/12/08 09:20:16;;;;;;;92.90;33.53;;;;;;;;;;4856052;29;20093;-68
2023/12/08 09:22:42;;;;;;;82.27;31.53;;;;;;;;;;4855757;29;20061;-68
2023/12/08 09:25:08;;;;;;;133.60;39.03;;;;;;;;;;4855726;29;20057;-68
2023/12/08 09:27:34;;;;;;;107.73;36.77;;;;;;;;;;4872669;29;20308;-68
2023/12/08 09:30:00;;;;;;;82.87;33.67;;;;;;;;;;4874182;29;20049;-68
2023/12/08 09:32:27;;;;;;;119.27;38.27;;;;;;;;;;4874416;29;20368;-68
2023/12/08 09:34:53;;;;;;;100.63;34.97;;;;;;;;;;4873788;29;20117;-68
2023/12/08 09:37:19;;;;;;;89.40;33.40;;;;;;;;;;4874206;29;20773;-68
2023/12/08 09:39:45;;;;;;;106.13;36.03;;;;;;;;;;4874148;29;20077;-68
2023/12/08 09:42:31;;;;;;;103.50;37.60;;;;;;;;;;4873945;29;20290;-68
2023/12/08 09:44:57;;;;;;;125.07;38.97;;;;;;;;;;4873784;29;20061;-68
2023/12/08 09:47:27;;;;;;;109.40;37.63;;;;;;;;;;4873926;29;20049;-67
2023/12/08 09:49:54;;;;;;;100.70;36.23;;;;;;;;;;4874369;29;20060;-68
2023/12/08 09:52:21;;;;;;;96.07;35.50;;;;;;;;;;4874014;29;20056;-68
2023/12/08 09:54:48;;;;;;;111.70;36.57;;;;;;;;;;4873796;29;20101;-68
2023/12/08 09:57:15;;;;;;;111.53;37.27;;;;;;;;;;4873485;29;20436;-68
2023/12/08 09:59:42;;;;;;;108.30;38.03;;;;;;;;;;4876407;29;20128;-68
2023/12/08 10:02:08;;;;;;;112.07;41.73;;;;;;;;;;4877349;29;20044;-68
2023/12/08 10:04:35;;;;;;;105.03;37.73;;;;;;;;;;4876288;29;20097;-68
2023/12/08 10:07:05;;;;;;;112.20;39.33;;;;;;;;;;4877478;29;20071;-68
2023/12/08 10:09:32;;;;;;;107.40;39.57;;;;;;;;;;4877305;29;20049;-68
2023/12/08 10:11:58;;;;;;;97.07;38.03;;;;;;;;;;4876123;29;20055;-68
2023/12/08 10:14:25;;;;;;;106.10;36.93;;;;;;;;;;4877676;29;20091;-68
2023/12/08 10:16:52;;;;;;;126.00;41.07;;;;;;;;;;4877366;29;20045;-67
2023/12/08 10:19:20;;;;;;;102.33;36.90;;;;;;;;;;4877046;29;20049;-68
2023/12/08 10:21:59;;;;;;;103.23;37.47;;;;;;;;;;4877410;29;20063;-68
2023/12/08 10:24:26;;;;;;;119.03;39.50;;;;;;;;;;4876695;29;20071;-68
2023/12/08 10:26:53;;;;;;;141.17;42.17;;;;;;;;;;4877523;29;20056;-67
2023/12/08 10:29:19;;;;;;;123.93;38.73;;;;;;;;;;4876981;29;20060;-68
2023/12/08 10:31:46;;;;;;;134.33;42.47;;;;;;;;;;4877311;29;20499;-68
2023/12/08 10:34:14;;;;;;;134.53;41.67;;;;;;;;;;4876757;29;20057;-68
2023/12/08 10:36:40;;;;;;;161.47;46.17;;;;;;;;;;4877218;29;20041;-68
2023/12/08 10:39:07;;;;;;;161.40;46.33;;;;;;;;;;4876577;29;20709;-67
2023/12/08 10:41:34;;;;;;;164.03;46.13;;;;;;;;;;4876903;29;20140;-67
2023/12/08 10:44:03;;;;;;;202.67;51.60;;;;;;;;;;4876872;29;20468;-67
2023/12/08 10:46:31;;;;;;;194.83;51.30;;;;;;;;;;4876675;29;20453;-67
2023/12/08 10:48:58;;;;;;;213.73;54.03;;;;;;;;;;4876452;29;20061;-67
2023/12/08 10:51:25;;;;;;;185.50;48.30;;;;;;;;;;4876871;29;20108;-67
2023/12/08 10:53:51;;;;;;;224.00;54.37;;;;;;;;;;4876810;29;20049;-67
2023/12/08 10:56:17;;;;;;;193.70;52.50;;;;;;;;;;4876465;29;20049;-67
2023/12/08 10:58:45;;;;;;;186.10;50.37;;;;;;;;;;4876258;29;20045;-67
2023/12/08 11:01:13;;;;;;;206.60;54.53;;;;;;;;;;4876318;29;20044;-67
2023/12/08 11:03:41;;;;;;;242.07;55.73;;;;;;;;;;4876546;29;20076;-67
2023/12/08 11:06:08;;;;;;;207.83;51.87;;;;;;;;;;4876542;29;20056;-67
2023/12/08 11:08:35;;;;;;;246.33;55.17;;;;;;;;;;4876494;29;20049;-67
2023/12/08 11:11:04;;;;;;;254.70;60.07;;;;;;;;;;4875558;29;20108;-65
2023/12/08 11:13:30;;;;;;;260.80;62.27;;;;;;;;;;4876168;29;20148;-65
2023/12/08 11:16:02;;;;;;;242.93;56.43;;;;;;;;;;4876673;29;20590;-64
2023/12/08 11:18:30;;;;;;;265.30;60.17;;;;;;;;;;4876276;29;20049;-65
2023/12/08 11:20:56;;;;;;;204.47;53.03;;;;;;;;;;4876456;29;20596;-65
2023/12/08 11:23:24;;;;;;;253.23;59.93;;;;;;;;;;4875410;29;20574;-64
2023/12/08 11:25:57;;;;;;;253.57;60.43;;;;;;;;;;4876326;29;20053;-64
2023/12/08 11:28:42;;;;;;;255.82;58.60;;;;;;;;;;4876133;29;20068;-64
2023/12/08 11:31:20;;;;;;;247.40;59.93;;;;;;;;;;4875912;29;20099;-64
2023/12/08 11:33:59;;;;;;;320.03;67.43;;;;;;;;;;4857615;29;20053;-64
2023/12/08 11:36:28;;;;;;;219.23;55.43;;;;;;;;;;4857415;29;20081;-64
2023/12/08 11:38:55;;;;;;;246.77;59.30;;;;;;;;;;4873758;29;20045;-64
2023/12/08 11:41:24;;;;;;;282.00;62.57;;;;;;;;;;4866225;29;20060;-63
2023/12/08 11:43:51;;;;;;;252.20;59.33;;;;;;;;;;4875818;29;20057;-63
2023/12/08 11:46:17;;;;;;;254.07;61.67;;;;;;;;;;4873070;29;20056;-63
2023/12/08 11:48:43;;;;;;;261.93;61.40;;;;;;;;;;4874873;29;20076;-63
2023/12/08 11:51:10;;;;;;;239.87;56.80;;;;;;;;;;4875787;29;20053;-64
2023/12/08 11:53:48;;;;;;;247.63;61.17;;;;;;;;;;4876252;29;20163;-64
2023/12/08 11:56:32;;;;;;;275.77;64.80;;;;;;;;;;4866192;29;20052;-63
2023/12/08 11:59:01;;;;;;;261.73;60.60;;;;;;;;;;4874279;29;20056;-63
2023/12/08 12:01:29;;;;;;;281.63;63.33;;;;;;;;;;4874925;29;20056;-64
2023/12/08 12:03:56;;;;;;;277.33;63.30;;;;;;;;;;4875980;29;20112;-64
2023/12/08 12:06:23;;;;;;;299.47;66.10;;;;;;;;;;4875814;29;20132;-63
2023/12/08 12:08:50;;;;;;;287.73;62.80;;;;;;;;;;4875242;29;20116;-63
2023/12/08 12:11:19;;;;;;;321.93;69.73;;;;;;;;;;4875804;29;20507;-63
2023/12/08 12:13:44;;;;;;;315.40;68.97;;;;;;;;;;4875493;29;20072;-63
2023/12/08 12:16:11;;;;;;;331.27;69.30;;;;;;;;;;4874699;29;20494;-63
2023/12/08 12:18:37;;;;;;;349.80;70.67;;;;;;;;;;4875105;29;20389;-63
2023/12/08 12:21:03;;;;;;;320.60;68.53;;;;;;;;;;4874688;29;20055;-63
2023/12/08 12:23:29;;;;;;;376.03;76.80;;;;;;;;;;4874981;29;20111;-64
2023/12/08 12:25:55;;;;;;;381.00;74.33;;;;;;;;;;4875392;29;20061;-63
2023/12/08 12:28:21;;;;;;;289.93;67.23;;;;;;;;;;4873773;29;20044;-63
2023/12/08 12:30:48;;;;;;;344.00;72.40;;;;;;;;;;4873846;29;20057;-64
2023/12/08 12:33:14;;;;;;;458.97;86.60;;;;;;;;;;4874249;29;20500;-64
2023/12/08 12:35:40;;;;;;;331.70;70.23;;;;;;;;;;4874035;29;20049;-64
2023/12/08 12:38:06;;;;;;;379.90;77.33;;;;;;;;;;4874328;29;20053;-63
2023/12/08 12:40:32;;;;;;;425.37;82.40;;;;;;;;;;4874636;29;20049;-64
2023/12/08 12:42:58;;;;;;;313.00;71.53;;;;;;;;;;4874246;29;20085;-64
2023/12/08 12:45:29;;;;;;;322.30;69.40;;;;;;;;;;4873010;29;20532;-64
2023/12/08 12:48:01;;;;;;;304.93;65.80;;;;;;;;;;4874300;29;20053;-63
2023/12/08 12:50:27;;;;;;;418.13;81.03;;;;;;;;;;4874746;29;20078;-63
2023/12/08 12:53:03;;;;;;;353.00;71.63;;;;;;;;;;4874715;29;20057;-63
2023/12/08 12:55:30;;;;;;;329.20;66.90;;;;;;;;;;4874505;29;20423;-64
2023/12/08 12:57:56;;;;;;;395.53;76.57;;;;;;;;;;4874322;29;20544;-63
2023/12/08 13:00:31;;;;;;;253.93;63.80;;;;;;;;;;4874710;29;20044;-64
2023/12/08 13:02:57;;;;;;;251.20;61.40;;;;;;;;;;4874762;29;20045;-63
2023/12/08 13:05:23;;;;;;;303.63;65.07;;;;;;;;;;4874635;29;20571;-64
2023/12/08 13:07:58;;;;;;;278.03;63.30;;;;;;;;;;4874777;29;20192;-63
2023/12/08 13:10:24;;;;;;;368.87;71.20;;;;;;;;;;4874305;29;20085;-63
2023/12/08 13:12:51;;;;;;;269.53;62.50;;;;;;;;;;4874771;29;20572;-63
2023/12/08 13:15:17;;;;;;;300.20;67.80;;;;;;;;;;4874501;29;20049;-64
2023/12/08 13:17:43;;;;;;;239.67;57.40;;;;;;;;;;4874414;29;20053;-63
2023/12/08 13:20:09;;;;;;;302.37;63.90;;;;;;;;;;4874460;29;20473;-63
2023/12/08 13:22:35;;;;;;;245.53;58.73;;;;;;;;;;4874322;29;20057;-63
2023/12/08 13:25:02;;;;;;;363.53;71.73;;;;;;;;;;4873595;29;20053;-63
2023/12/08 13:27:28;;;;;;;300.83;67.60;;;;;;;;;;4874388;29;20135;-63
2023/12/08 13:29:54;;;;;;;342.57;70.87;;;;;;;;;;4874300;29;20136;-63
2023/12/08 13:32:20;;;;;;;363.57;72.13;;;;;;;;;;4874397;29;20085;-64
2023/12/08 13:34:46;;;;;;;330.73;69.50;;;;;;;;;;4877092;29;20061;-63
2023/12/08 13:37:12;;;;;;;315.43;67.77;;;;;;;;;;4877929;29;20112;-63
2023/12/08 13:39:38;;;;;;;361.97;71.40;;;;;;;;;;4877924;29;20143;-63
2023/12/08 13:42:05;;;;;;;470.50;86.10;;;;;;;;;;4878399;29;20060;-64
2023/12/08 13:44:31;;;;;;;439.33;80.80;;;;;;;;;;4877901;29;20067;-63
2023/12/08 13:46:57;;;;;;;400.63;77.10;;;;;;;;;;4877962;29;20049;-63
2023/12/08 13:49:23;;;;;;;416.17;78.47;;;;;;;;;;4878024;29;20052;-63
2023/12/08 13:51:49;;;;;;;363.47;73.73;;;;;;;;;;4878173;29;20460;-63
2023/12/08 13:54:15;;;;;;;427.63;80.30;;;;;;;;;;4877548;29;20691;-63
2023/12/08 13:56:41;;;;;;;449.93;86.33;;;;;;;;;;4877647;29;20559;-64
2023/12/08 13:59:07;;;;;;;490.77;90.47;;;;;;;;;;4877948;29;20069;-63
2023/12/08 14:01:33;;;;;;;395.90;78.87;;;;;;;;;;4877454;29;20057;-63
2023/12/08 14:03:59;;;;;;;418.40;83.50;;;;;;;;;;4877472;29;20084;-63
2023/12/08 14:06:25;;;;;;;394.97;74.93;;;;;;;;;;4877676;29;20055;-64
2023/12/08 14:08:52;;;;;;;436.73;82.40;;;;;;;;;;4877955;29;20120;-64